sensor_id;sensor_type;location;lat;lon;timestamp;P1;durP1;ratioP1;P2;durP2;ratioP2
2756;SDS011;1386;50.862;6.494;2024-03-23T05:00:31;5.43;;;2.67;;
2756;SDS011;1386;50.862;6.494;2024-03-23T05:03:26;9.70;;;2.75;;
2756;SDS011;1386;50.862;6.494;2024-03-23T05:06:21;9.33;;;3.33;;
2756;SDS011;1386;50.862;6.494;2024-03-23T05:11:38;8.50;;;3.70;;
2756;SDS011;1386;50.862;6.494;2024-03-23T05:32:51;6.53;;;3.80;;
2756;SDS011;1386;50.862;6.494;2024-03-23T05:35:19;11.23;;;3.83;;
2756;SDS011;1386;50.862;6.494;2024-03-23T05:38:07;9.33;;;3.80;;
2756;SDS011;1386;50.862;6.494;2024-03-23T05:40:59;8.23;;;3.57;;
2756;SDS011;1386;50.862;6.494;2024-03-23T05:43:37;7.90;;;3.17;;
2756;SDS011;1386;50.862;6.494;2024-03-23T05:46:24;6.50;;;3.50;;
2756;SDS011;1386;50.862;6.494;2024-03-23T05:55:44;6.33;;;3.83;;
2756;SDS011;1386;50.862;6.494;2024-03-23T05:58:25;8.93;;;3.30;;
2756;SDS011;1386;50.862;6.494;2024-03-23T06:01:01;11.37;;;3.83;;
2756;SDS011;1386;50.862;6.494;2024-03-23T06:03:50;8.20;;;4.63;;
2756;SDS011;1386;50.862;6.494;2024-03-23T06:10:17;9.33;;;3.47;;
2756;SDS011;1386;50.862;6.494;2024-03-23T06:12:56;9.30;;;3.83;;
2756;SDS011;1386;50.862;6.494;2024-03-23T06:15:38;12.10;;;4.47;;
2756;SDS011;1386;50.862;6.494;2024-03-23T06:18:15;13.07;;;4.17;;
2756;SDS011;1386;50.862;6.494;2024-03-23T06:20:58;6.83;;;4.47;;
2756;SDS011;1386;50.862;6.494;2024-03-23T06:23:56;10.27;;;3.70;;
2756;SDS011;1386;50.862;6.494;2024-03-23T06:26:34;7.73;;;4.00;;
2756;SDS011;1386;50.862;6.494;2024-03-23T06:29:10;8.10;;;3.93;;
2756;SDS011;1386;50.862;6.494;2024-03-23T06:31:36;8.80;;;4.30;;
2756;SDS011;1386;50.862;6.494;2024-03-23T06:34:02;9.07;;;5.40;;
2756;SDS011;1386;50.862;6.494;2024-03-23T06:36:39;10.60;;;4.57;;
2756;SDS011;1386;50.862;6.494;2024-03-23T06:39:17;14.27;;;4.73;;
2756;SDS011;1386;50.862;6.494;2024-03-23T06:41:53;9.43;;;5.60;;
2756;SDS011;1386;50.862;6.494;2024-03-23T06:44:22;12.33;;;6.23;;
2756;SDS011;1386;50.862;6.494;2024-03-23T06:46:48;9.87;;;6.00;;
2756;SDS011;1386;50.862;6.494;2024-03-23T06:49:14;11.07;;;6.17;;
2756;SDS011;1386;50.862;6.494;2024-03-23T06:52:03;13.47;;;7.37;;
2756;SDS011;1386;50.862;6.494;2024-03-23T06:54:42;13.10;;;7.90;;
2756;SDS011;1386;50.862;6.494;2024-03-23T06:57:19;13.77;;;7.37;;
2756;SDS011;1386;50.862;6.494;2024-03-23T06:59:46;12.67;;;7.97;;
2756;SDS011;1386;50.862;6.494;2024-03-23T07:02:15;12.40;;;8.07;;
2756;SDS011;1386;50.862;6.494;2024-03-23T07:04:53;13.83;;;7.30;;
2756;SDS011;1386;50.862;6.494;2024-03-23T07:07:28;15.10;;;7.20;;
2756;SDS011;1386;50.862;6.494;2024-03-23T07:10:01;13.07;;;7.73;;
2756;SDS011;1386;50.862;6.494;2024-03-23T07:15:19;15.70;;;8.83;;
2756;SDS011;1386;50.862;6.494;2024-03-23T07:18:09;14.43;;;8.90;;
2756;SDS011;1386;50.862;6.494;2024-03-23T07:20:59;16.33;;;9.47;;
2756;SDS011;1386;50.862;6.494;2024-03-23T07:23:32;17.73;;;10.07;;
2756;SDS011;1386;50.862;6.494;2024-03-23T07:26:12;11.27;;;6.07;;
2756;SDS011;1386;50.862;6.494;2024-03-23T07:28:39;7.50;;;2.87;;
2756;SDS011;1386;50.862;6.494;2024-03-23T07:31:09;5.37;;;2.87;;
2756;SDS011;1386;50.862;6.494;2024-03-23T07:33:44;4.50;;;2.30;;
2756;SDS011;1386;50.862;6.494;2024-03-23T07:36:23;4.60;;;2.67;;
2756;SDS011;1386;50.862;6.494;2024-03-23T07:38:50;5.07;;;2.20;;
2756;SDS011;1386;50.862;6.494;2024-03-23T07:41:17;2.90;;;2.20;;
2756;SDS011;1386;50.862;6.494;2024-03-23T07:43:46;3.23;;;2.57;;
2756;SDS011;1386;50.862;6.494;2024-03-23T07:46:14;9.57;;;3.70;;
2756;SDS011;1386;50.862;6.494;2024-03-23T07:48:42;6.63;;;3.03;;
2756;SDS011;1386;50.862;6.494;2024-03-23T07:51:08;5.57;;;2.67;;
2756;SDS011;1386;50.862;6.494;2024-03-23T07:53:36;7.40;;;3.00;;
2756;SDS011;1386;50.862;6.494;2024-03-23T07:56:06;4.27;;;3.30;;
2756;SDS011;1386;50.862;6.494;2024-03-23T07:58:34;7.10;;;3.53;;
2756;SDS011;1386;50.862;6.494;2024-03-23T08:01:06;4.37;;;3.80;;
2756;SDS011;1386;50.862;6.494;2024-03-23T08:03:34;6.97;;;4.50;;
2756;SDS011;1386;50.862;6.494;2024-03-23T08:06:06;9.40;;;5.70;;
2756;SDS011;1386;50.862;6.494;2024-03-23T08:08:33;11.67;;;7.60;;
2756;SDS011;1386;50.862;6.494;2024-03-23T08:10:59;9.20;;;7.07;;
2756;SDS011;1386;50.862;6.494;2024-03-23T08:13:26;9.50;;;7.80;;
2756;SDS011;1386;50.862;6.494;2024-03-23T08:15:52;14.60;;;8.37;;
2756;SDS011;1386;50.862;6.494;2024-03-23T08:18:27;17.00;;;8.83;;
2756;SDS011;1386;50.862;6.494;2024-03-23T08:20:56;12.27;;;7.37;;
2756;SDS011;1386;50.862;6.494;2024-03-23T08:23:24;15.70;;;8.80;;
2756;SDS011;1386;50.862;6.494;2024-03-23T08:25:50;12.40;;;7.80;;
2756;SDS011;1386;50.862;6.494;2024-03-23T08:28:25;8.03;;;5.87;;
2756;SDS011;1386;50.862;6.494;2024-03-23T08:30:52;12.40;;;6.70;;
2756;SDS011;1386;50.862;6.494;2024-03-23T08:33:23;21.27;;;7.57;;
2756;SDS011;1386;50.862;6.494;2024-03-23T08:35:55;14.00;;;6.33;;
2756;SDS011;1386;50.862;6.494;2024-03-23T08:38:25;15.10;;;6.40;;
2756;SDS011;1386;50.862;6.494;2024-03-23T08:41:22;19.13;;;6.57;;
2756;SDS011;1386;50.862;6.494;2024-03-23T08:43:50;10.83;;;6.00;;
2756;SDS011;1386;50.862;6.494;2024-03-23T08:46:17;14.87;;;6.30;;
2756;SDS011;1386;50.862;6.494;2024-03-23T08:48:44;10.13;;;5.90;;
2756;SDS011;1386;50.862;6.494;2024-03-23T08:51:13;12.23;;;5.13;;
2756;SDS011;1386;50.862;6.494;2024-03-23T08:53:40;11.47;;;5.50;;
2756;SDS011;1386;50.862;6.494;2024-03-23T08:56:08;9.60;;;5.10;;
2756;SDS011;1386;50.862;6.494;2024-03-23T08:58:36;7.93;;;5.17;;
2756;SDS011;1386;50.862;6.494;2024-03-23T09:01:04;12.13;;;5.50;;
2756;SDS011;1386;50.862;6.494;2024-03-23T09:03:32;10.47;;;5.07;;
2756;SDS011;1386;50.862;6.494;2024-03-23T09:05:59;9.23;;;4.20;;
2756;SDS011;1386;50.862;6.494;2024-03-23T09:08:27;6.57;;;3.77;;
2756;SDS011;1386;50.862;6.494;2024-03-23T09:10:54;6.90;;;3.93;;
2756;SDS011;1386;50.862;6.494;2024-03-23T09:13:22;8.20;;;4.70;;
2756;SDS011;1386;50.862;6.494;2024-03-23T09:15:49;7.03;;;4.23;;
2756;SDS011;1386;50.862;6.494;2024-03-23T09:18:17;9.17;;;4.60;;
2756;SDS011;1386;50.862;6.494;2024-03-23T09:20:43;8.93;;;4.60;;
2756;SDS011;1386;50.862;6.494;2024-03-23T09:23:10;6.00;;;3.50;;
2756;SDS011;1386;50.862;6.494;2024-03-23T09:25:38;7.97;;;3.40;;
2756;SDS011;1386;50.862;6.494;2024-03-23T09:28:06;8.40;;;3.50;;
2756;SDS011;1386;50.862;6.494;2024-03-23T09:30:33;10.87;;;3.60;;
2756;SDS011;1386;50.862;6.494;2024-03-23T09:33:02;8.10;;;3.27;;
2756;SDS011;1386;50.862;6.494;2024-03-23T09:35:29;12.53;;;5.47;;
2756;SDS011;1386;50.862;6.494;2024-03-23T09:37:55;9.47;;;3.63;;
2756;SDS011;1386;50.862;6.494;2024-03-23T09:40:22;6.77;;;3.20;;
2756;SDS011;1386;50.862;6.494;2024-03-23T09:42:51;12.87;;;3.73;;
2756;SDS011;1386;50.862;6.494;2024-03-23T09:45:17;7.77;;;3.10;;
2756;SDS011;1386;50.862;6.494;2024-03-23T09:47:49;7.00;;;2.60;;
2756;SDS011;1386;50.862;6.494;2024-03-23T09:50:16;13.23;;;3.30;;
2756;SDS011;1386;50.862;6.494;2024-03-23T09:52:45;6.10;;;3.23;;
2756;SDS011;1386;50.862;6.494;2024-03-23T09:55:12;8.97;;;2.60;;
2756;SDS011;1386;50.862;6.494;2024-03-23T09:57:42;8.60;;;2.77;;
2756;SDS011;1386;50.862;6.494;2024-03-23T10:00:10;3.93;;;2.17;;
2756;SDS011;1386;50.862;6.494;2024-03-23T10:02:38;4.33;;;2.10;;
2756;SDS011;1386;50.862;6.494;2024-03-23T10:05:15;5.63;;;2.40;;
2756;SDS011;1386;50.862;6.494;2024-03-23T10:07:51;7.27;;;3.10;;
2756;SDS011;1386;50.862;6.494;2024-03-23T10:10:18;7.37;;;3.20;;
2756;SDS011;1386;50.862;6.494;2024-03-23T10:12:46;5.80;;;2.53;;
2756;SDS011;1386;50.862;6.494;2024-03-23T10:15:19;5.90;;;2.20;;
2756;SDS011;1386;50.862;6.494;2024-03-23T10:17:46;3.60;;;2.50;;
2756;SDS011;1386;50.862;6.494;2024-03-23T10:20:13;3.97;;;2.30;;
2756;SDS011;1386;50.862;6.494;2024-03-23T10:22:45;6.73;;;2.50;;
2756;SDS011;1386;50.862;6.494;2024-03-23T10:25:11;3.30;;;2.20;;
2756;SDS011;1386;50.862;6.494;2024-03-23T10:27:38;4.47;;;2.30;;
2756;SDS011;1386;50.862;6.494;2024-03-23T10:30:08;6.30;;;2.13;;
2756;SDS011;1386;50.862;6.494;2024-03-23T10:32:37;5.03;;;2.50;;
2756;SDS011;1386;50.862;6.494;2024-03-23T10:35:16;7.70;;;2.73;;
2756;SDS011;1386;50.862;6.494;2024-03-23T10:37:45;3.93;;;2.20;;
2756;SDS011;1386;50.862;6.494;2024-03-23T10:40:12;7.17;;;2.70;;
2756;SDS011;1386;50.862;6.494;2024-03-23T10:42:39;7.97;;;3.30;;
2756;SDS011;1386;50.862;6.494;2024-03-23T10:45:06;6.03;;;2.40;;
2756;SDS011;1386;50.862;6.494;2024-03-23T10:47:34;6.30;;;2.93;;
2756;SDS011;1386;50.862;6.494;2024-03-23T10:50:02;5.10;;;2.90;;
2756;SDS011;1386;50.862;6.494;2024-03-23T10:52:31;6.87;;;2.67;;
2756;SDS011;1386;50.862;6.494;2024-03-23T10:54:58;9.30;;;2.93;;
2756;SDS011;1386;50.862;6.494;2024-03-23T10:57:27;13.33;;;2.40;;
2756;SDS011;1386;50.862;6.494;2024-03-23T10:59:58;12.00;;;3.27;;
2756;SDS011;1386;50.862;6.494;2024-03-23T11:02:28;5.83;;;2.63;;
2756;SDS011;1386;50.862;6.494;2024-03-23T11:04:55;6.30;;;2.33;;
2756;SDS011;1386;50.862;6.494;2024-03-23T11:07:31;7.43;;;2.93;;
2756;SDS011;1386;50.862;6.494;2024-03-23T11:09:58;5.77;;;3.40;;
2756;SDS011;1386;50.862;6.494;2024-03-23T11:12:26;6.00;;;3.43;;
2756;SDS011;1386;50.862;6.494;2024-03-23T11:14:57;10.03;;;3.27;;
2756;SDS011;1386;50.862;6.494;2024-03-23T11:17:27;5.50;;;2.70;;
2756;SDS011;1386;50.862;6.494;2024-03-23T11:19:54;8.60;;;3.20;;
2756;SDS011;1386;50.862;6.494;2024-03-23T11:22:39;6.37;;;2.83;;
2756;SDS011;1386;50.862;6.494;2024-03-23T11:25:14;6.80;;;2.93;;
2756;SDS011;1386;50.862;6.494;2024-03-23T11:27:45;4.47;;;2.50;;
2756;SDS011;1386;50.862;6.494;2024-03-23T11:30:12;4.30;;;2.60;;
2756;SDS011;1386;50.862;6.494;2024-03-23T11:32:41;4.40;;;2.97;;
2756;SDS011;1386;50.862;6.494;2024-03-23T11:35:08;6.73;;;3.40;;
2756;SDS011;1386;50.862;6.494;2024-03-23T11:37:36;11.93;;;3.23;;
2756;SDS011;1386;50.862;6.494;2024-03-23T11:40:19;7.63;;;3.17;;
2756;SDS011;1386;50.862;6.494;2024-03-23T11:42:55;3.40;;;3.10;;
2756;SDS011;1386;50.862;6.494;2024-03-23T11:45:21;5.30;;;3.43;;
2756;SDS011;1386;50.862;6.494;2024-03-23T11:47:48;7.80;;;3.30;;
2756;SDS011;1386;50.862;6.494;2024-03-23T11:50:26;7.80;;;3.10;;
2756;SDS011;1386;50.862;6.494;2024-03-23T11:52:54;11.00;;;3.47;;
2756;SDS011;1386;50.862;6.494;2024-03-23T11:55:41;6.53;;;2.97;;
2756;SDS011;1386;50.862;6.494;2024-03-23T11:58:09;7.10;;;3.83;;
2756;SDS011;1386;50.862;6.494;2024-03-23T12:00:36;11.10;;;3.87;;
2756;SDS011;1386;50.862;6.494;2024-03-23T12:03:03;5.97;;;2.80;;
2756;SDS011;1386;50.862;6.494;2024-03-23T12:05:30;4.40;;;2.93;;
2756;SDS011;1386;50.862;6.494;2024-03-23T12:10:48;2.03;;;1.50;;
2756;SDS011;1386;50.862;6.494;2024-03-23T12:13:16;4.80;;;1.60;;
2756;SDS011;1386;50.862;6.494;2024-03-23T12:15:43;5.53;;;1.97;;
2756;SDS011;1386;50.862;6.494;2024-03-23T12:18:11;3.00;;;1.80;;
2756;SDS011;1386;50.862;6.494;2024-03-23T12:20:37;2.37;;;1.80;;
2756;SDS011;1386;50.862;6.494;2024-03-23T12:23:08;5.43;;;2.20;;
2756;SDS011;1386;50.862;6.494;2024-03-23T12:25:36;3.47;;;2.20;;
2756;SDS011;1386;50.862;6.494;2024-03-23T12:28:04;1.70;;;1.60;;
2756;SDS011;1386;50.862;6.494;2024-03-23T12:30:31;1.63;;;1.53;;
2756;SDS011;1386;50.862;6.494;2024-03-23T12:36:25;2.37;;;1.60;;
2756;SDS011;1386;50.862;6.494;2024-03-23T12:39:04;3.17;;;2.03;;
2756;SDS011;1386;50.862;6.494;2024-03-23T12:41:31;1.90;;;1.70;;
2756;SDS011;1386;50.862;6.494;2024-03-23T12:44:01;2.00;;;1.80;;
2756;SDS011;1386;50.862;6.494;2024-03-23T12:46:27;3.10;;;2.27;;
2756;SDS011;1386;50.862;6.494;2024-03-23T12:48:54;2.40;;;2.20;;
2756;SDS011;1386;50.862;6.494;2024-03-23T12:51:20;3.83;;;2.23;;
2756;SDS011;1386;50.862;6.494;2024-03-23T12:53:47;4.80;;;2.20;;
2756;SDS011;1386;50.862;6.494;2024-03-23T12:56:13;4.40;;;2.80;;
2756;SDS011;1386;50.862;6.494;2024-03-23T12:58:41;2.70;;;2.17;;
2756;SDS011;1386;50.862;6.494;2024-03-23T13:01:07;4.20;;;2.30;;
2756;SDS011;1386;50.862;6.494;2024-03-23T13:03:36;3.33;;;2.30;;
2756;SDS011;1386;50.862;6.494;2024-03-23T13:06:02;5.13;;;2.90;;
2756;SDS011;1386;50.862;6.494;2024-03-23T13:08:32;3.33;;;2.40;;
2756;SDS011;1386;50.862;6.494;2024-03-23T13:10:58;6.50;;;2.90;;
2756;SDS011;1386;50.862;6.494;2024-03-23T13:13:25;5.17;;;2.70;;
2756;SDS011;1386;50.862;6.494;2024-03-23T13:15:52;5.90;;;2.73;;
2756;SDS011;1386;50.862;6.494;2024-03-23T13:18:22;5.23;;;2.90;;
2756;SDS011;1386;50.862;6.494;2024-03-23T13:20:48;5.83;;;2.60;;
2756;SDS011;1386;50.862;6.494;2024-03-23T13:23:15;5.83;;;2.90;;
2756;SDS011;1386;50.862;6.494;2024-03-23T13:25:42;4.17;;;2.80;;
2756;SDS011;1386;50.862;6.494;2024-03-23T13:28:16;5.57;;;2.77;;
2756;SDS011;1386;50.862;6.494;2024-03-23T13:30:49;4.17;;;2.53;;
2756;SDS011;1386;50.862;6.494;2024-03-23T13:33:18;3.50;;;2.33;;
2756;SDS011;1386;50.862;6.494;2024-03-23T13:35:49;3.77;;;1.97;;
2756;SDS011;1386;50.862;6.494;2024-03-23T13:38:16;4.40;;;2.07;;
2756;SDS011;1386;50.862;6.494;2024-03-23T13:40:50;3.83;;;2.07;;
2756;SDS011;1386;50.862;6.494;2024-03-23T13:43:17;2.70;;;2.30;;
2756;SDS011;1386;50.862;6.494;2024-03-23T13:45:43;3.30;;;2.03;;
2756;SDS011;1386;50.862;6.494;2024-03-23T13:48:11;3.03;;;2.67;;
2756;SDS011;1386;50.862;6.494;2024-03-23T13:50:38;3.67;;;2.07;;
2756;SDS011;1386;50.862;6.494;2024-03-23T13:53:05;6.70;;;2.07;;
2756;SDS011;1386;50.862;6.494;2024-03-23T13:55:31;3.27;;;2.63;;
2756;SDS011;1386;50.862;6.494;2024-03-23T13:57:58;3.53;;;2.20;;
2756;SDS011;1386;50.862;6.494;2024-03-23T14:00:24;5.93;;;2.27;;
2756;SDS011;1386;50.862;6.494;2024-03-23T14:02:51;7.73;;;2.53;;
2756;SDS011;1386;50.862;6.494;2024-03-23T14:05:19;2.67;;;2.47;;
2756;SDS011;1386;50.862;6.494;2024-03-23T14:07:48;4.20;;;2.53;;
2756;SDS011;1386;50.862;6.494;2024-03-23T14:10:14;3.60;;;3.30;;
2756;SDS011;1386;50.862;6.494;2024-03-23T14:12:44;2.80;;;2.37;;
2756;SDS011;1386;50.862;6.494;2024-03-23T14:15:11;3.43;;;2.80;;
2756;SDS011;1386;50.862;6.494;2024-03-23T14:17:37;4.67;;;2.30;;
2756;SDS011;1386;50.862;6.494;2024-03-23T14:20:05;4.00;;;3.60;;
2756;SDS011;1386;50.862;6.494;2024-03-23T14:22:34;8.07;;;2.87;;
2756;SDS011;1386;50.862;6.494;2024-03-23T14:25:02;5.47;;;2.90;;
2756;SDS011;1386;50.862;6.494;2024-03-23T14:27:30;5.50;;;2.30;;
2756;SDS011;1386;50.862;6.494;2024-03-23T14:29:57;6.80;;;2.63;;
2756;SDS011;1386;50.862;6.494;2024-03-23T14:32:23;3.83;;;2.90;;
2756;SDS011;1386;50.862;6.494;2024-03-23T14:34:50;2.10;;;1.87;;
2756;SDS011;1386;50.862;6.494;2024-03-23T14:37:19;2.30;;;1.50;;
2756;SDS011;1386;50.862;6.494;2024-03-23T14:39:48;2.23;;;1.90;;
2756;SDS011;1386;50.862;6.494;2024-03-23T14:42:16;9.87;;;6.13;;
2756;SDS011;1386;50.862;6.494;2024-03-23T14:44:43;3.70;;;2.10;;
2756;SDS011;1386;50.862;6.494;2024-03-23T14:47:09;4.70;;;2.60;;
2756;SDS011;1386;50.862;6.494;2024-03-23T14:49:36;4.53;;;2.70;;
2756;SDS011;1386;50.862;6.494;2024-03-23T14:52:02;2.33;;;2.13;;
2756;SDS011;1386;50.862;6.494;2024-03-23T14:54:33;2.20;;;2.00;;
2756;SDS011;1386;50.862;6.494;2024-03-23T14:57:02;4.57;;;2.53;;
2756;SDS011;1386;50.862;6.494;2024-03-23T14:59:31;3.10;;;2.13;;
2756;SDS011;1386;50.862;6.494;2024-03-23T15:01:57;5.20;;;2.10;;
2756;SDS011;1386;50.862;6.494;2024-03-23T15:04:27;3.70;;;2.23;;
2756;SDS011;1386;50.862;6.494;2024-03-23T15:06:54;3.83;;;2.10;;
2756;SDS011;1386;50.862;6.494;2024-03-23T15:09:21;2.90;;;1.73;;
2756;SDS011;1386;50.862;6.494;2024-03-23T15:11:47;4.03;;;2.70;;
2756;SDS011;1386;50.862;6.494;2024-03-23T15:14:14;2.87;;;2.63;;
2756;SDS011;1386;50.862;6.494;2024-03-23T15:16:41;3.80;;;2.77;;
2756;SDS011;1386;50.862;6.494;2024-03-23T15:19:08;4.83;;;2.80;;
2756;SDS011;1386;50.862;6.494;2024-03-23T15:21:48;3.77;;;2.73;;
2756;SDS011;1386;50.862;6.494;2024-03-23T15:24:15;6.57;;;3.00;;
2756;SDS011;1386;50.862;6.494;2024-03-23T15:26:41;5.30;;;2.53;;
2756;SDS011;1386;50.862;6.494;2024-03-23T15:29:08;4.40;;;2.47;;
2756;SDS011;1386;50.862;6.494;2024-03-23T15:31:43;4.23;;;2.53;;
2756;SDS011;1386;50.862;6.494;2024-03-23T15:34:11;3.43;;;2.27;;
2756;SDS011;1386;50.862;6.494;2024-03-23T15:36:37;6.27;;;2.70;;
2756;SDS011;1386;50.862;6.494;2024-03-23T15:42:21;13.00;;;3.60;;
2756;SDS011;1386;50.862;6.494;2024-03-23T15:44:47;4.07;;;2.67;;
2756;SDS011;1386;50.862;6.494;2024-03-23T15:47:15;2.53;;;1.83;;
2756;SDS011;1386;50.862;6.494;2024-03-23T15:49:41;5.23;;;1.90;;
2756;SDS011;1386;50.862;6.494;2024-03-23T15:52:09;3.13;;;1.77;;
2756;SDS011;1386;50.862;6.494;2024-03-23T16:15:59;3.07;;;1.60;;
2756;SDS011;1386;50.862;6.494;2024-03-23T16:18:26;2.20;;;2.00;;
2756;SDS011;1386;50.862;6.494;2024-03-23T16:20:53;6.73;;;5.37;;
2756;SDS011;1386;50.862;6.494;2024-03-23T16:23:20;4.80;;;4.30;;
2756;SDS011;1386;50.862;6.494;2024-03-23T16:26:24;2.47;;;2.00;;
2756;SDS011;1386;50.862;6.494;2024-03-23T16:29:18;5.03;;;3.90;;
2756;SDS011;1386;50.862;6.494;2024-03-23T16:31:55;6.13;;;4.13;;
2756;SDS011;1386;50.862;6.494;2024-03-23T16:34:27;4.50;;;3.83;;
2756;SDS011;1386;50.862;6.494;2024-03-23T16:37:05;5.87;;;3.23;;
2756;SDS011;1386;50.862;6.494;2024-03-23T16:39:38;8.20;;;4.40;;
2756;SDS011;1386;50.862;6.494;2024-03-23T16:42:13;6.70;;;4.17;;
2756;SDS011;1386;50.862;6.494;2024-03-23T16:44:45;4.50;;;3.50;;
2756;SDS011;1386;50.862;6.494;2024-03-23T16:47:42;6.40;;;3.67;;
2756;SDS011;1386;50.862;6.494;2024-03-23T16:50:18;3.70;;;3.43;;
2756;SDS011;1386;50.862;6.494;2024-03-23T16:56:10;5.40;;;3.00;;
2756;SDS011;1386;50.862;6.494;2024-03-23T16:58:55;3.30;;;2.87;;
2756;SDS011;1386;50.862;6.494;2024-03-23T17:04:31;3.13;;;2.87;;
2756;SDS011;1386;50.862;6.494;2024-03-23T17:07:18;4.30;;;2.63;;
2756;SDS011;1386;50.862;6.494;2024-03-23T17:10:24;3.83;;;2.30;;
2756;SDS011;1386;50.862;6.494;2024-03-23T17:13:19;4.40;;;2.17;;
2756;SDS011;1386;50.862;6.494;2024-03-23T17:16:13;2.70;;;2.50;;
2756;SDS011;1386;50.862;6.494;2024-03-23T17:19:05;6.33;;;3.07;;
2756;SDS011;1386;50.862;6.494;2024-03-23T17:21:57;4.40;;;2.77;;
2756;SDS011;1386;50.862;6.494;2024-03-23T17:24:32;3.27;;;2.50;;
2756;SDS011;1386;50.862;6.494;2024-03-23T17:27:29;2.53;;;2.30;;
2756;SDS011;1386;50.862;6.494;2024-03-23T17:30:10;3.83;;;2.93;;
2756;SDS011;1386;50.862;6.494;2024-03-23T17:32:49;3.10;;;2.60;;
2756;SDS011;1386;50.862;6.494;2024-03-23T17:35:33;3.63;;;2.60;;
2756;SDS011;1386;50.862;6.494;2024-03-23T17:38:14;3.67;;;2.80;;
2756;SDS011;1386;50.862;6.494;2024-03-23T17:48:38;3.47;;;2.93;;
2756;SDS011;1386;50.862;6.494;2024-03-23T17:51:13;5.33;;;3.23;;
2756;SDS011;1386;50.862;6.494;2024-03-23T17:54:10;6.90;;;3.67;;
2756;SDS011;1386;50.862;6.494;2024-03-23T17:56:58;5.50;;;3.93;;
2756;SDS011;1386;50.862;6.494;2024-03-23T17:59:54;4.80;;;3.60;;
2756;SDS011;1386;50.862;6.494;2024-03-23T18:02:40;4.97;;;3.77;;
2756;SDS011;1386;50.862;6.494;2024-03-23T18:05:25;5.60;;;3.17;;
2756;SDS011;1386;50.862;6.494;2024-03-23T18:07:53;5.90;;;3.00;;
2756;SDS011;1386;50.862;6.494;2024-03-23T18:10:19;3.77;;;2.50;;
2756;SDS011;1386;50.862;6.494;2024-03-23T18:12:47;3.60;;;2.60;;
2756;SDS011;1386;50.862;6.494;2024-03-23T18:15:13;4.23;;;2.90;;
2756;SDS011;1386;50.862;6.494;2024-03-23T18:17:40;3.23;;;2.50;;
2756;SDS011;1386;50.862;6.494;2024-03-23T18:20:06;2.97;;;2.67;;
2756;SDS011;1386;50.862;6.494;2024-03-23T18:22:34;3.40;;;2.37;;
2756;SDS011;1386;50.862;6.494;2024-03-23T18:25:02;3.37;;;2.40;;
2756;SDS011;1386;50.862;6.494;2024-03-23T18:27:30;3.63;;;2.20;;
2756;SDS011;1386;50.862;6.494;2024-03-23T18:29:56;3.00;;;2.27;;
2756;SDS011;1386;50.862;6.494;2024-03-23T18:32:23;2.60;;;2.40;;
2756;SDS011;1386;50.862;6.494;2024-03-23T18:34:49;3.70;;;2.73;;
2756;SDS011;1386;50.862;6.494;2024-03-23T18:37:32;2.40;;;2.20;;
2756;SDS011;1386;50.862;6.494;2024-03-23T18:39:59;4.37;;;2.10;;
2756;SDS011;1386;50.862;6.494;2024-03-23T18:42:27;2.47;;;2.27;;
2756;SDS011;1386;50.862;6.494;2024-03-23T18:44:53;2.23;;;2.00;;
2756;SDS011;1386;50.862;6.494;2024-03-23T18:47:20;2.17;;;2.00;;
2756;SDS011;1386;50.862;6.494;2024-03-23T18:49:46;2.00;;;1.90;;
2756;SDS011;1386;50.862;6.494;2024-03-23T18:52:13;2.70;;;2.50;;
2756;SDS011;1386;50.862;6.494;2024-03-23T18:54:39;3.97;;;2.47;;
2756;SDS011;1386;50.862;6.494;2024-03-23T18:57:06;5.47;;;3.37;;
2756;SDS011;1386;50.862;6.494;2024-03-23T18:59:33;5.33;;;3.70;;
2756;SDS011;1386;50.862;6.494;2024-03-23T19:02:03;6.20;;;3.90;;
2756;SDS011;1386;50.862;6.494;2024-03-23T19:04:29;5.10;;;4.17;;
2756;SDS011;1386;50.862;6.494;2024-03-23T19:06:56;4.10;;;3.70;;
2756;SDS011;1386;50.862;6.494;2024-03-23T19:09:22;5.93;;;3.87;;
2756;SDS011;1386;50.862;6.494;2024-03-23T19:11:50;5.00;;;3.70;;
2756;SDS011;1386;50.862;6.494;2024-03-23T19:14:16;4.03;;;3.27;;
2756;SDS011;1386;50.862;6.494;2024-03-23T19:16:45;4.37;;;2.50;;
2756;SDS011;1386;50.862;6.494;2024-03-23T19:19:11;3.50;;;3.00;;
2756;SDS011;1386;50.862;6.494;2024-03-23T19:21:38;4.77;;;4.30;;
2756;SDS011;1386;50.862;6.494;2024-03-23T19:24:04;5.27;;;3.80;;
2756;SDS011;1386;50.862;6.494;2024-03-23T19:26:32;4.83;;;3.43;;
2756;SDS011;1386;50.862;6.494;2024-03-23T19:28:58;5.60;;;3.00;;
2756;SDS011;1386;50.862;6.494;2024-03-23T19:31:26;3.50;;;2.63;;
2756;SDS011;1386;50.862;6.494;2024-03-23T19:33:53;2.93;;;2.70;;
2756;SDS011;1386;50.862;6.494;2024-03-23T20:48:55;7.83;;;2.87;;
2756;SDS011;1386;50.862;6.494;2024-03-23T20:51:22;6.30;;;2.80;;
2756;SDS011;1386;50.862;6.494;2024-03-23T20:53:48;9.40;;;3.50;;
2756;SDS011;1386;50.862;6.494;2024-03-23T20:56:15;6.17;;;3.50;;
2756;SDS011;1386;50.862;6.494;2024-03-23T20:58:41;6.60;;;2.80;;
2756;SDS011;1386;50.862;6.494;2024-03-23T21:01:08;8.50;;;3.47;;
2756;SDS011;1386;50.862;6.494;2024-03-23T21:03:34;4.33;;;3.17;;
2756;SDS011;1386;50.862;6.494;2024-03-23T21:06:03;5.37;;;3.47;;
2756;SDS011;1386;50.862;6.494;2024-03-23T21:08:31;4.80;;;3.77;;
2756;SDS011;1386;50.862;6.494;2024-03-23T21:10:59;5.40;;;3.33;;
2756;SDS011;1386;50.862;6.494;2024-03-23T21:13:28;4.37;;;4.03;;
2756;SDS011;1386;50.862;6.494;2024-03-23T21:15:56;5.37;;;4.00;;
2756;SDS011;1386;50.862;6.494;2024-03-23T21:18:24;5.43;;;3.40;;
2756;SDS011;1386;50.862;6.494;2024-03-23T21:20:55;4.30;;;4.00;;
2756;SDS011;1386;50.862;6.494;2024-03-23T21:23:24;6.33;;;3.50;;
2756;SDS011;1386;50.862;6.494;2024-03-23T21:25:54;3.90;;;3.43;;
2756;SDS011;1386;50.862;6.494;2024-03-23T21:28:20;4.50;;;3.20;;
2756;SDS011;1386;50.862;6.494;2024-03-23T21:30:48;4.10;;;3.80;;
2756;SDS011;1386;50.862;6.494;2024-03-23T21:33:14;3.70;;;3.40;;
2756;SDS011;1386;50.862;6.494;2024-03-23T21:35:41;4.50;;;3.30;;
2756;SDS011;1386;50.862;6.494;2024-03-23T21:38:07;6.73;;;3.03;;
2756;SDS011;1386;50.862;6.494;2024-03-23T21:40:36;5.63;;;3.10;;
2756;SDS011;1386;50.862;6.494;2024-03-23T21:43:03;3.47;;;3.17;;
2756;SDS011;1386;50.862;6.494;2024-03-23T21:45:31;3.70;;;3.23;;
2756;SDS011;1386;50.862;6.494;2024-03-23T21:47:56;2.87;;;2.67;;
2756;SDS011;1386;50.862;6.494;2024-03-23T21:50:23;5.47;;;3.23;;
2756;SDS011;1386;50.862;6.494;2024-03-23T21:52:49;2.97;;;2.77;;
2756;SDS011;1386;50.862;6.494;2024-03-23T21:55:17;4.83;;;3.00;;
2756;SDS011;1386;50.862;6.494;2024-03-23T21:57:47;3.53;;;3.20;;
2756;SDS011;1386;50.862;6.494;2024-03-23T22:00:15;3.63;;;3.30;;
2756;SDS011;1386;50.862;6.494;2024-03-23T22:02:41;3.17;;;2.93;;
2756;SDS011;1386;50.862;6.494;2024-03-23T22:05:10;3.00;;;2.67;;
2756;SDS011;1386;50.862;6.494;2024-03-23T22:07:36;2.27;;;2.07;;
2756;SDS011;1386;50.862;6.494;2024-03-23T22:10:03;2.80;;;2.60;;
2756;SDS011;1386;50.862;6.494;2024-03-23T22:12:31;2.27;;;2.17;;
2756;SDS011;1386;50.862;6.494;2024-03-23T22:15:01;3.70;;;2.70;;
2756;SDS011;1386;50.862;6.494;2024-03-23T22:17:32;2.00;;;1.90;;
